DRI Storm Peak Lab. Weather observations

Data are for 5 minute period ending at time listed.
 Day   Time    Ave.   Ave.  Ave.  Vector  Max.   Total    Baro.    Solar      Aerosol      Ave.  Ultrafine   Snow  
  of    of     Air    Rel.  Wind   Wind   Wind  Precip.   Pres.  Radiation   Aerosol      Ozone   Aerosol    Depth 
Year   Day     Temp.  Hum.  Speed  Dir.   Gust                               Ave.   Max.            Ave.           
2016   (MST)    F      %     mph   deg.    mph    in.      mb.     w/m2         #/cm3      ppbv    #/cm3      in.  
-------------------------------------------------------------------------------------------------------------------
 272   21:30   48.5    42    7.7   123    13.3   999.00    699.8    999.0    999000   999000   999.0    999000   999.0
 272   21:35   48.2    42    6.7   112    16.1   999.00    699.8    999.0    999000   999000   999.0    999000   999.0
 272   21:40   48.1    42    6.5   105    11.3   999.00    699.8    999.0    999000   999000   999.0    999000   999.0
 272   21:45   47.9    42    8.0   108    13.5   999.00    699.8    999.0    999000   999000   999.0    999000   999.0
 272   21:50   47.7    42    7.2   115    14.1   999.00    699.7    999.0    999000   999000   999.0    999000   999.0
 272   21:55   47.5    43    5.9   110    14.1   999.00    699.7    999.0    999000   999000   999.0    999000   999.0
 272   22:00   47.2    43    6.8   116    11.5   999.00    699.7    999.0    999000   999000   999.0    999000   999.0
 272   22:05   47.2    43    8.5   112    14.6   999.00    699.7    999.0    999000   999000   999.0    999000   999.0
 272   22:10   47.3    43    8.0   115    14.3   999.00    699.6    999.0    999000   999000   999.0    999000   999.0
 272   22:15   47.0    43    6.7   104    14.4   999.00    699.7    999.0    999000   999000   999.0    999000   999.0
 272   22:20   46.9    43    8.2   116    18.7   999.00    699.7    999.0    999000   999000   999.0    999000   999.0
 272   22:25   46.9    43    9.5   109    16.3   999.00    699.7    999.0    999000   999000   999.0    999000   999.0
 272   22:30   46.8    43    8.1   109    14.3   999.00    699.7    999.0    999000   999000   999.0    999000   999.0
 272   22:35   46.7    44    8.5   105    15.2   999.00    699.7    999.0    999000   999000   999.0    999000   999.0
 272   22:40   46.5    44    6.9   114    16.5   999.00    699.6    999.0    999000   999000   999.0    999000   999.0
 272   22:45   46.5    44    7.3   118    16.3   999.00    699.7    999.0    999000   999000   999.0    999000   999.0
 272   22:50   46.4    44    7.2   108    15.0   999.00    699.6    999.0    999000   999000   999.0    999000   999.0
 272   22:55   46.4    44    6.1   116    12.2   999.00    699.6    999.0    999000   999000   999.0    999000   999.0
 272   23:00   46.4    44    8.1   112    18.0   999.00    699.7    999.0    999000   999000   999.0    999000   999.0
 272   23:05   46.4    44    5.6   109    16.1   999.00    699.7    999.0    999000   999000   999.0    999000   999.0
 272   23:10   46.4    44    4.9    95    12.4   999.00    699.7    999.0    999000   999000   999.0    999000   999.0
 272   23:15   46.1    45    4.9   102    12.4   999.00    699.7    999.0    999000   999000   999.0    999000   999.0
 272   23:20   46.1    45    5.9   115    14.4   999.00    699.7    999.0    999000   999000   999.0    999000   999.0
 272   23:25   46.1    45    7.3   112    14.6   999.00    699.7    999.0    999000   999000   999.0    999000   999.0
 272   23:30   46.0    45    6.8   114    13.3   999.00    699.7    999.0    999000   999000   999.0    999000   999.0
 272   23:35   46.0    45    6.9   113    15.0   999.00    699.7    999.0    999000   999000   999.0    999000   999.0
 272   23:40   46.0    45    9.0   107    14.3   999.00    699.7    999.0    999000   999000   999.0    999000   999.0
 272   23:45   46.0    45    6.3   105    11.8   999.00    699.8    999.0    999000   999000   999.0    999000   999.0
 272   23:50   45.6    46    7.0   115    14.8   999.00    699.7    999.0    999000   999000   999.0    999000   999.0
 272   23:55   45.6    46    7.6   112    18.4   999.00    699.7    999.0    999000   999000   999.0    999000   999.0
 273    0:00   45.5    46    9.5   123    18.0   999.00    699.7    999.0    999000   999000   999.0    999000   999.0
 273    0:05   45.1    47    6.6   127    18.0   999.00    699.7    999.0    999000   999000   999.0    999000   999.0
 273    0:10   45.0    47    8.5   118    18.0   999.00    699.7    999.0    999000   999000   999.0    999000   999.0
 273    0:15   44.8    47   10.1   126    18.0   999.00    699.7    999.0    999000   999000   999.0    999000   999.0
 273    0:20   44.7    48    8.7   126    14.8   999.00    699.7    999.0    999000   999000   999.0    999000   999.0
 273    0:25   44.5    48   11.3   124    18.2   999.00    699.7    999.0    999000   999000   999.0    999000   999.0
 273    0:30   44.9    47   11.3   120    20.4   999.00    699.7    999.0    999000   999000   999.0    999000   999.0
 273    0:35   44.9    47    9.3   120    18.4   999.00    699.7    999.0    999000   999000   999.0    999000   999.0
 273    0:40   44.7    48   11.6   119    20.6   999.00    699.7    999.0    999000   999000   999.0    999000   999.0
 273    0:45   44.7    48   10.0   124    18.7   999.00    699.7    999.0    999000   999000   999.0    999000   999.0
 273    0:50   44.6    48   11.3   125    19.9   999.00    699.8    999.0    999000   999000   999.0    999000   999.0
 273    0:55   44.8    48   13.2   127    18.4   999.00    699.8    999.0    999000   999000   999.0    999000   999.0
 273    1:00   44.7    48   11.7   125    20.6   999.00    699.8    999.0    999000   999000   999.0    999000   999.0
 273    1:05   44.6    48   10.5   125    19.3   999.00    699.9    999.0    999000   999000   999.0    999000   999.0
 273    1:10   44.6    48   10.4   125    19.5   999.00    699.9    999.0    999000   999000   999.0    999000   999.0
 273    1:15   44.6    48    6.3   124    13.5   999.00    699.9    999.0    999000   999000   999.0    999000   999.0
 273    1:20   44.6    48    6.3   120    17.2   999.00    699.9    999.0    999000   999000   999.0    999000   999.0
 273    1:25   44.5    48    8.2   121    16.3   999.00    699.9    999.0    999000   999000   999.0    999000   999.0
 273    1:30   44.3    48    9.2   120    16.7   999.00    699.9    999.0    999000   999000   999.0    999000   999.0
 273    1:35   44.1    48    5.5   118    10.2   999.00    699.9    999.0    999000   999000   999.0    999000   999.0
 273    1:40   44.1    49    4.5   123     8.7   999.00    700.0    999.0    999000   999000   999.0    999000   999.0
 273    1:45   44.2    48    5.8   123    13.3   999.00    700.0    999.0    999000   999000   999.0    999000   999.0
 273    1:50   44.4    48    5.1   119     9.8   999.00    700.0    999.0    999000   999000   999.0    999000   999.0
 273    1:55   44.1    48    7.3   123    12.2   999.00    700.0    999.0    999000   999000   999.0    999000   999.0
 273    2:00   44.3    48    7.2   118    15.6   999.00    700.0    999.0    999000   999000   999.0    999000   999.0
 273    2:05   44.4    48    8.9   126    14.1   999.00    700.0    999.0    999000   999000   999.0    999000   999.0
 273    2:10   44.6    47   10.9   130    15.0   999.00    700.0    999.0    999000   999000   999.0    999000   999.0
 273    2:15   45.0    46    8.9   131    12.6   999.00    700.0    999.0    999000   999000   999.0    999000   999.0
 273    2:20   45.1    46    6.1   132    10.0   999.00    700.0    999.0    999000   999000   999.0    999000   999.0
 273    2:25   45.6    46    7.2   157    11.5   999.00    700.0    999.0    999000   999000   999.0    999000   999.0
 273    2:30   47.0    43    5.3   176     9.1   999.00    700.0    999.0    999000   999000   999.0    999000   999.0
 273    2:35   47.5    42    9.2   192    14.1   999.00    700.0    999.0    999000   999000   999.0    999000   999.0
 273    2:40   48.1    42    4.9   210     8.1   999.00    700.0    999.0    999000   999000   999.0    999000   999.0
 273    2:45   48.2    42    6.2   213    14.6   999.00    700.0    999.0    999000   999000   999.0    999000   999.0
 273    2:50   48.0    43   10.2   221    16.3   999.00    700.0    999.0    999000   999000   999.0    999000   999.0
 273    2:55   47.8    43    5.7   214    11.7   999.00    700.0    999.0    999000   999000   999.0    999000   999.0
 273    3:00   47.6    43    4.9   213     7.8   999.00    700.0    999.0    999000   999000   999.0    999000   999.0
 273    3:05   47.3    44    5.6   213     9.1   999.00    700.0    999.0    999000   999000   999.0    999000   999.0
 273    3:10   47.4    44    7.6   220    13.0   999.00    700.0    999.0    999000   999000   999.0    999000   999.0
 273    3:15   47.2    44    8.7   225    12.0   999.00    700.0    999.0    999000   999000   999.0    999000   999.0
 273    3:20   46.9    46    8.2   224    14.6   999.00    700.0    999.0    999000   999000   999.0    999000   999.0
 273    3:25   46.9    47    9.1   228    14.8   999.00    700.0    999.0    999000   999000   999.0    999000   999.0
 273    3:30   46.7    47    8.8   233    12.4   999.00    700.0    999.0    999000   999000   999.0    999000   999.0
 273    3:35   46.4    50   12.9   242    15.0   999.00    700.0    999.0    999000   999000   999.0    999000   999.0
 273    3:40   46.1    50   10.6   243    13.7   999.00    700.0    999.0    999000   999000   999.0    999000   999.0
 273    3:45   46.0    51   10.7   243    14.6   999.00    700.0    999.0    999000   999000   999.0    999000   999.0
 273    3:50   45.9    52   10.8   241    12.4   999.00    701.0    999.0    999000   999000   999.0    999000   999.0
 273    3:55   45.6    53    8.6   244    11.7   999.00    701.0    999.0    999000   999000   999.0    999000   999.0
 273    4:00   45.4    54    8.9   248    10.4   999.00    701.0    999.0    999000   999000   999.0    999000   999.0
 273    4:05   45.4    55    8.7   252    10.6   999.00    701.0    999.0    999000   999000   999.0    999000   999.0
 273    4:10   45.2    54    7.6   255    10.0   999.00    701.0    999.0    999000   999000   999.0    999000   999.0
 273    4:15   45.1    54    8.7   250    10.4   999.00    701.0    999.0    999000   999000   999.0    999000   999.0
 273    4:20   45.0    55    6.9   256     9.1   999.00    701.0    999.0    999000   999000   999.0    999000   999.0
 273    4:25   45.0    57    6.2   254     7.9   999.00    701.0    999.0    999000   999000   999.0    999000   999.0
 273    4:30   44.9    58    5.6   245     7.2   999.00    701.0    999.0    999000   999000   999.0    999000   999.0
 273    4:35   44.9    55    6.7   241     7.9   999.00    701.0    999.0    999000   999000   999.0    999000   999.0
 273    4:40   44.6    60    6.2   241     7.9   999.00    701.0    999.0    999000   999000   999.0    999000   999.0
 273    4:45   44.7    61    5.0   247     7.4   999.00    701.0    999.0    999000   999000   999.0    999000   999.0
 273    4:50   44.7    62    3.7   254     5.3   999.00    701.0    999.0    999000   999000   999.0    999000   999.0
 273    4:55   44.7    63    5.4   243     9.8   999.00    701.0    999.0    999000   999000   999.0    999000   999.0
 273    5:00   44.7    63    5.0   243     6.8   999.00    701.0    999.0    999000   999000   999.0    999000   999.0
 273    5:05   44.9    63    3.2   252     5.2   999.00    701.0    999.0    999000   999000   999.0    999000   999.0
 273    5:10   44.8    63    2.8   240     3.7   999.00    701.0    999.0    999000   999000   999.0    999000   999.0
 273    5:15   44.8    63    2.7   235     3.7   999.00    701.0    999.0    999000   999000   999.0    999000   999.0
 273    5:20   45.0    62    2.4   240     4.8   999.00    701.0    999.0    999000   999000   999.0    999000   999.0
 273    5:25   44.9    63    2.7   290     4.4   999.00    701.0    999.0    999000   999000   999.0    999000   999.0
 273    5:30   45.0    63    2.7   288     4.0   999.00    701.0    999.0    999000   999000   999.0    999000   999.0
 273    5:35   44.9    63    2.7   290     3.7   999.00    701.0    999.0    999000   999000   999.0    999000   999.0
 273    5:40   45.1    63    3.0   297     3.8   999.00    701.0    999.0    999000   999000   999.0    999000   999.0
 273    5:45   45.4    62    2.5   295     3.3   999.00    701.0    999.0    999000   999000   999.0    999000   999.0
 273    5:50   45.4    63    2.2   295     3.3   999.00    701.0    999.0    999000   999000   999.0    999000   999.0
 273    5:55   45.4    63    2.7   296     3.8   999.00    701.0    999.0    999000   999000   999.0    999000   999.0
 273    6:00   45.5    63    3.0   300     3.7   999.00    701.0    999.0    999000   999000   999.0    999000   999.0
 273    6:05   45.6    62    2.3   312     2.7   999.00    701.0    999.0    999000   999000   999.0    999000   999.0
 273    6:10   45.7    62    1.8   314     1.8   999.00    701.0    999.0    999000   999000   999.0    999000   999.0
 273    6:15   45.7    62    2.0   311     2.7   999.00    701.0    999.0    999000   999000   999.0    999000   999.0
 273    6:20   45.9    62    2.3   309     2.9   999.00    701.0    999.0    999000   999000   999.0    999000   999.0
 273    6:25   45.9    62    2.6   304     3.3   999.00    701.0    999.0    999000   999000   999.0    999000   999.0
 273    6:30   45.9    62    3.1   304     3.5   999.00    701.0    999.0    999000   999000   999.0    999000   999.0
 273    6:35   46.0    62    2.7   306     3.1   999.00    701.0    999.0    999000   999000   999.0    999000   999.0
 273    6:40   46.1    61    2.5   308     2.9   999.00    701.0    999.0    999000   999000   999.0    999000   999.0
 273    6:45   46.5    60    2.0   308     2.5   999.00    701.0    999.0    999000   999000   999.0    999000   999.0
 273    6:50   46.6    60    1.8   308     2.0   999.00    701.0    999.0    999000   999000   999.0    999000   999.0
 273    6:55   46.7    59    1.8   308     1.8   999.00    701.0    999.0    999000   999000   999.0    999000   999.0
 273    7:00   46.8    59    1.8   308     1.8   999.00    701.0    999.0    999000   999000   999.0    999000   999.0
 273    7:05   46.9    59    1.8   307     1.8   999.00    701.0    999.0    999000   999000   999.0    999000   999.0
 273    7:10   47.0    58    1.8   307     1.8   999.00    701.0    999.0    999000   999000   999.0    999000   999.0
 273    7:15   47.1    58    1.8   307     1.8   999.00    701.0    999.0    999000   999000   999.0    999000   999.0
 273    7:20   47.4    57    1.8   307     1.8   999.00    701.0    999.0    999000   999000   999.0    999000   999.0
 273    7:25   47.6    58    1.8   307     1.8   999.00    701.0    999.0    999000   999000   999.0    999000   999.0
 273    7:30   47.8    57    1.9   305     2.7   999.00    701.0    999.0    999000   999000   999.0    999000   999.0
 273    7:35   48.0    59    2.1   302     2.9   999.00    701.0    999.0    999000   999000   999.0    999000   999.0
 273    7:40   47.9    59    3.2   228     3.8   999.00    701.0    999.0    999000   999000   999.0    999000   999.0
 273    7:45   47.9    58    2.9   165     3.7   999.00    701.0    999.0    999000   999000   999.0    999000   999.0
 273    7:50   48.4    58    3.0   164     3.8   999.00    701.0    999.0    999000   999000   999.0    999000   999.0
 273    7:55   48.8    56    2.8   165     3.3   999.00    701.0    999.0    999000   999000   999.0    999000   999.0
 273    8:00   48.9    56    2.3   164     2.9   999.00    701.0    999.0    999000   999000   999.0    999000   999.0
 273    8:05   49.3    54    2.5   164     3.3   999.00    701.0    999.0    999000   999000   999.0    999000   999.0
 273    8:10   49.4    53    2.8   164     4.0   999.00    701.0    999.0    999000   999000   999.0    999000   999.0
 273    8:15   49.8    55    2.5   143     3.5   999.00    701.0    999.0    999000   999000   999.0    999000   999.0
 273    8:20   50.5    53    3.0   148     5.7   999.00    701.0    999.0    999000   999000   999.0    999000   999.0
 273    8:25   50.2    52    3.4   142     5.2   999.00    701.0    999.0    999000   999000   999.0    999000   999.0
 273    8:30   50.7    54    2.7   131     4.8   999.00    701.0    999.0    999000   999000   999.0    999000   999.0
 273    8:35   51.3    52    2.9   138     6.5   999.00    701.0    999.0    999000   999000   999.0    999000   999.0
 273    8:40   50.7    52    3.0   163     5.5   999.00    701.0    999.0    999000   999000   999.0    999000   999.0
 273    8:45   50.5    53    2.4   173     3.7   999.00    701.0    999.0    999000   999000   999.0    999000   999.0
 273    8:50   51.4    52    2.6   148     5.0   999.00    701.0    999.0    999000   999000   999.0    999000   999.0
 273    8:55   51.7    51    2.7   175     4.2   999.00    701.0    999.0    999000   999000   999.0    999000   999.0
 273    9:00   50.1    52    3.5   199     6.1   999.00    701.0    999.0    999000   999000   999.0    999000   999.0
 273    9:05   49.8    53    3.5   209     5.2   999.00    701.0    999.0    999000   999000   999.0    999000   999.0
 273    9:10   50.8    51    3.3   215     5.3   999.00    701.0    999.0    999000   999000   999.0    999000   999.0
 273    9:15   51.0    48    3.9   240     6.8   999.00    701.0    999.0    999000   999000   999.0    999000   999.0
 273    9:20   51.0    47    3.7   244     5.7   999.00    701.0    999.0    999000   999000   999.0    999000   999.0
 273    9:25   50.6    48    4.3   256     7.4   999.00    701.0    999.0    999000   999000   999.0    999000   999.0
 273    9:30   50.5    47    5.2   247     6.8   999.00    701.0    999.0    999000   999000   999.0    999000   999.0
 273    9:35   50.5    47    4.1   258     7.2   999.00    701.0    999.0    999000   999000   999.0    999000   999.0
 273    9:40   51.1    42    4.9   254     7.6   999.00    701.0    999.0    999000   999000   999.0    999000   999.0
 273    9:45   51.0    43    4.8   246     7.6   999.00    701.0    999.0    999000   999000   999.0    999000   999.0
 273    9:50   51.0    44    4.8   251     7.4   999.00    701.0    999.0    999000   999000   999.0    999000   999.0
 273    9:55   50.5    52    4.5   248     8.3   999.00    701.0    999.0    999000   999000   999.0    999000   999.0
 273   10:00   49.8    54    3.8   249     8.1   999.00    701.0    999.0    999000   999000   999.0    999000   999.0
 273   10:05   50.3    53    3.2   257     5.9   999.00    701.0    999.0    999000   999000   999.0    999000   999.0
 273   10:10   49.9    53    2.2   264     3.3   999.00    701.0    999.0    999000   999000   999.0    999000   999.0
 273   10:15   50.0    53    3.5   263     5.2   999.00    701.0    999.0    999000   999000   999.0    999000   999.0
 273   10:20   49.6    53    3.8   269     5.5   999.00    701.0    999.0    999000   999000   999.0    999000   999.0
 273   10:25   49.3    54    4.1   276     5.5   999.00    701.0    999.0    999000   999000   999.0    999000   999.0
 273   10:30   49.1    55    2.5   274     4.6   999.00    701.0    999.0    999000   999000   999.0    999000   999.0
 273   10:35   49.9    52    3.0   265     5.5   999.00    701.0    999.0    999000   999000   999.0    999000   999.0
 273   10:40   50.2    53    2.9   270     5.3   999.00    701.0    999.0    999000   999000   999.0    999000   999.0
 273   10:45   50.6    53    2.7   295     4.4   999.00    701.0    999.0    999000   999000   999.0    999000   999.0
 273   10:50   50.5    52    3.4   300     4.8   999.00    701.0    999.0    999000   999000   999.0    999000   999.0
 273   10:55   50.8    51    2.8   300     4.2   999.00    701.0    999.0    999000   999000   999.0    999000   999.0
 273   11:00   51.2    51    3.5   295     5.2   999.00    701.0    999.0    999000   999000   999.0    999000   999.0
 273   11:05   50.5    50    2.8   286     4.6   999.00    701.0    999.0    999000   999000   999.0    999000   999.0
 273   11:10   50.0    50    2.2   271     3.7   999.00    701.0    999.0    999000   999000   999.0    999000   999.0
 273   11:15   51.4    48    1.9   270     3.1   999.00    701.0    999.0    999000   999000   999.0    999000   999.0
 273   11:20   52.8    47    2.4   267     3.8   999.00    701.0    999.0    999000   999000   999.0    999000   999.0
 273   11:25   50.7    50    3.7   265     5.7   999.00    701.0    999.0    999000   999000   999.0    999000   999.0
 273   11:30   50.4    52    3.0   264     5.2   999.00    701.0    999.0    999000   999000   999.0    999000   999.0
 273   11:35   50.5    53    2.7   265     5.3   999.00    701.0    999.0    999000   999000   999.0    999000   999.0
 273   11:40   50.6    52    3.5   275     5.5   999.00    701.0    999.0    999000   999000   999.0    999000   999.0
 273   11:45   49.7    53    3.4   295     4.4   999.00    701.0    999.0    999000   999000   999.0    999000   999.0
 273   11:50   50.3    53    3.6   285     5.0   999.00    701.0    999.0    999000   999000   999.0    999000   999.0
 273   11:55   51.2    51    4.5   284     6.5   999.00    701.0    999.0    999000   999000   999.0    999000   999.0
 273   12:00   50.9    50    4.2   261     7.6   999.00    701.0    999.0    999000   999000   999.0    999000   999.0
 273   12:05   51.9    50    3.1   251     6.1   999.00    701.0    999.0    999000   999000   999.0    999000   999.0
 273   12:10   53.1    50    3.8   282     6.5   999.00    701.0    999.0    999000   999000   999.0    999000   999.0
 273   12:15   51.0    52    6.3   258    11.8   999.00    701.0    999.0    999000   999000   999.0    999000   999.0
 273   12:20   50.8    54    5.9   259    10.7   999.00    701.0    999.0    999000   999000   999.0    999000   999.0
 273   12:25   50.2    55    4.2   276     7.8   999.00    701.0    999.0    999000   999000   999.0    999000   999.0
 273   12:30   49.9    55    4.7   299     8.1   999.00    701.0    999.0    999000   999000   999.0    999000   999.0
 273   12:35   50.1    55    4.7   289     6.6   999.00    701.0    999.0    999000   999000   999.0    999000   999.0
 273   12:40   50.9    54    4.8   275     8.7   999.00    700.0    999.0    999000   999000   999.0    999000   999.0
 273   12:45   50.7    54    5.5   265     9.2   999.00    701.0    999.0    999000   999000   999.0    999000   999.0
 273   12:50   50.2    54    5.5   277     8.1   999.00    701.0    999.0    999000   999000   999.0    999000   999.0
 273   12:55   49.1    56    4.2   284     7.2   999.00    701.0    999.0    999000   999000   999.0    999000   999.0
 273   13:00   49.1    57    6.3   269     9.8   999.00    700.0    999.0    999000   999000   999.0    999000   999.0
 273   13:05   49.2    58    5.7   279     9.2   999.00    700.0    999.0    999000   999000   999.0    999000   999.0
 273   13:10   49.3    60    8.4   277    14.3   999.00    701.0    999.0    999000   999000   999.0    999000   999.0
 273   13:15   49.0    62    8.8   288    13.5   999.00    700.0    999.0    999000   999000   999.0    999000   999.0
 273   13:20   48.7    64    9.9   302    13.3   999.00    700.0    999.0    999000   999000   999.0    999000   999.0
 273   13:25   48.5    64    9.9   296    13.9   999.00    700.0    999.0    999000   999000   999.0    999000   999.0
 273   13:30   48.4    64    9.7   319    15.4   999.00    700.0    999.0    999000   999000   999.0    999000   999.0
 273   13:35   47.9    65    9.0   312    11.8   999.00    700.0    999.0    999000   999000   999.0    999000   999.0
 273   13:40   48.7    65    8.5   288    14.4   999.00    700.0    999.0    999000   999000   999.0    999000   999.0
 273   13:45   49.0    64    7.3   279    12.8   999.00    700.0    999.0    999000   999000   999.0    999000   999.0
 273   13:50   49.0    64    7.3   285    10.7   999.00    700.0    999.0    999000   999000   999.0    999000   999.0
 273   13:55   48.4    66    8.4   289    12.0   999.00    700.0    999.0    999000   999000   999.0    999000   999.0
 273   14:00   47.8    68    7.2   288    11.1   999.00    700.0    999.0    999000   999000   999.0    999000   999.0
 273   14:05   47.7    67    5.7   307    10.0   999.00    700.0    999.0    999000   999000   999.0    999000   999.0
 273   14:10   47.4    68    4.8   291     7.0   999.00    700.0    999.0    999000   999000   999.0    999000   999.0
 273   14:15   47.6    67    3.8   275     7.9   999.00    700.0    999.0    999000   999000   999.0    999000   999.0
 273   14:20   47.3    67    7.8   254    12.2   999.00    700.0    999.0    999000   999000   999.0    999000   999.0
 273   14:25   47.7    68    5.4   253    10.2   999.00    700.0    999.0    999000   999000   999.0    999000   999.0
 273   14:30   47.4    68    7.2   267    13.3   999.00    700.0    999.0    999000   999000   999.0    999000   999.0
 273   14:35   46.9    68    9.7   241    13.7   999.00    700.0    999.0    999000   999000   999.0    999000   999.0
 273   14:40   46.6    70    7.5   239    13.5   999.00    700.0    999.0    999000   999000   999.0    999000   999.0
 273   14:45   46.5    73    9.0   237    14.8   999.00    700.0    999.0    999000   999000   999.0    999000   999.0
 273   14:50   46.2    75    6.2   230    11.5   999.00    700.0    999.0    999000   999000   999.0    999000   999.0
 273   14:55   46.0    73    4.0   220     8.3   999.00    700.0    999.0    999000   999000   999.0    999000   999.0
 273   15:00   46.2    74    2.2   214     3.8   999.00    700.0    999.0    999000   999000   999.0    999000   999.0
 273   15:05   46.0    75    2.2   240     3.7   999.00    700.0    999.0    999000   999000   999.0    999000   999.0
 273   15:10   46.3    72    3.8   195     8.5   999.00    700.0    999.0    999000   999000   999.0    999000   999.0
 273   15:15   46.3    70    6.8   190    10.6   999.00    700.0    999.0    999000   999000   999.0    999000   999.0
 273   15:20   46.4    70    7.2   194    11.8   999.00    700.0    999.0    999000   999000   999.0    999000   999.0
 273   15:25   46.2    72    6.4   214    16.9   999.00    700.0    999.0    999000   999000   999.0    999000   999.0
 273   15:30   46.1    77    6.3   236    10.6   999.00    700.0    999.0    999000   999000   999.0    999000   999.0
 273   15:35   45.5    85    6.0   248    10.7   999.00    700.0    999.0    999000   999000   999.0    999000   999.0
 273   15:40   45.0    91    3.2   277     5.7   999.00    699.9    999.0    999000   999000   999.0    999000   999.0
 273   15:45   44.2    98    3.7   266     5.3   999.00    700.0    999.0    999000   999000   999.0    999000   999.0
 273   15:50   43.7   100    4.5   268     8.7   999.00    700.0    999.0    999000   999000   999.0    999000   999.0
 273   15:55   43.4   100    5.2   254    10.6   999.00    700.0    999.0    999000   999000   999.0    999000   999.0
 273   16:00   43.3   100    2.9   259     5.0   999.00    700.0    999.0    999000   999000   999.0    999000   999.0
 273   16:05   43.2   100    4.5   226    16.5   999.00    700.0    999.0    999000   999000   999.0    999000   999.0
 273   16:10   45.0    82   12.5   195    17.8   999.00    700.0    999.0    999000   999000   999.0    999000   999.0
 273   16:15   45.6    78    8.6   206    16.5   999.00    699.9    999.0    999000   999000   999.0    999000   999.0
 273   16:20   45.0    84    8.2   196    17.2   999.00    699.9    999.0    999000   999000   999.0    999000   999.0
 273   16:25   45.0    85    7.7   191    18.5   999.00    699.9    999.0    999000   999000   999.0    999000   999.0
 273   16:30   44.7    93    2.5   202     3.8   999.00    699.9    999.0    999000   999000   999.0    999000   999.0
 273   16:35   44.2    97    2.3   249     4.2   999.00    699.9    999.0    999000   999000   999.0    999000   999.0
 273   16:40   43.5   100    2.6   289     3.8   999.00    700.0    999.0    999000   999000   999.0    999000   999.0
 273   16:45   43.1   100    2.3   276     4.0   999.00    700.0    999.0    999000   999000   999.0    999000   999.0
 273   16:50   43.2   100    1.9   264     3.1   999.00    700.0    999.0    999000   999000   999.0    999000   999.0
 273   16:55   43.4    97    3.7   194     7.4   999.00    699.9    999.0    999000   999000   999.0    999000   999.0
 273   17:00   44.1    93    2.7   215     4.6   999.00    700.0    999.0    999000   999000   999.0    999000   999.0
 273   17:05   43.5    99    2.3   265     3.7   999.00    700.0    999.0    999000   999000   999.0    999000   999.0
 273   17:10   43.1    98    2.3   233     5.3   999.00    700.0    999.0    999000   999000   999.0    999000   999.0
 273   17:15   43.4    95    3.3   225     6.5   999.00    700.0    999.0    999000   999000   999.0    999000   999.0
 273   17:20   44.6    84    4.1   212     6.1   999.00    700.0    999.0    999000   999000   999.0    999000   999.0
 273   17:25   44.4    87    2.6   164     5.0   999.00    699.9    999.0    999000   999000   999.0    999000   999.0
 273   17:30   44.4    90    1.8   156     1.8   999.00    699.9    999.0    999000   999000   999.0    999000   999.0
 273   17:35   44.2    86    4.7   223     9.4   999.00    699.9    999.0    999000   999000   999.0    999000   999.0
 273   17:40   44.3    86    4.7   249    10.4   999.00    699.9    999.0    999000   999000   999.0    999000   999.0
 273   17:45   43.6    91    5.1   272     8.9   999.00    699.9    999.0    999000   999000   999.0    999000   999.0
 273   17:50   43.0    97    3.5   303     5.9   999.00    699.9    999.0    999000   999000   999.0    999000   999.0
 273   17:55   42.6    99    3.0   302     4.0   999.00    699.9    999.0    999000   999000   999.0    999000   999.0
 273   18:00   42.3   100    2.9   303     3.8   999.00    699.8    999.0    999000   999000   999.0    999000   999.0
 273   18:05   42.6    97    3.4   304     5.0   999.00    699.8    999.0    999000   999000   999.0    999000   999.0
 273   18:10   42.7    95    3.5   289     5.0   999.00    699.7    999.0    999000   999000   999.0    999000   999.0
 273   18:15   42.9    91    6.3   285    10.2   999.00    699.8    999.0    999000   999000   999.0    999000   999.0
 273   18:20   43.2    88    4.9   298    10.4   999.00    699.8    999.0    999000   999000   999.0    999000   999.0
 273   18:25   43.0    90    5.7   288    10.7   999.00    699.7    999.0    999000   999000   999.0    999000   999.0
 273   18:30   43.1    89    5.1   300     6.8   999.00    699.7    999.0    999000   999000   999.0    999000   999.0
 273   18:35   42.9    92    3.6   300     4.6   999.00    699.8    999.0    999000   999000   999.0    999000   999.0
 273   18:40   42.8    92    3.4   292     4.6   999.00    699.8    999.0    999000   999000   999.0    999000   999.0
 273   18:45   43.0    90    3.9   297     5.5   999.00    699.9    999.0    999000   999000   999.0    999000   999.0
 273   18:50   43.0    90    3.7   297     5.3   999.00    699.9    999.0    999000   999000   999.0    999000   999.0
 273   18:55   43.1    89    5.0   306     6.8   999.00    699.9    999.0    999000   999000   999.0    999000   999.0
 273   19:00   43.1    90    4.6   303     6.3   999.00    699.9    999.0    999000   999000   999.0    999000   999.0
 273   19:05   42.8    93    3.8   316     5.3   999.00    699.9    999.0    999000   999000   999.0    999000   999.0
 273   19:10   42.6    94    3.6   322     5.5   999.00    700.0    999.0    999000   999000   999.0    999000   999.0
 273   19:15   42.6    95    3.2   327     3.8   999.00    700.0    999.0    999000   999000   999.0    999000   999.0
 273   19:20   42.5    95    5.1   341     7.6   999.00    699.9    999.0    999000   999000   999.0    999000   999.0
 273   19:25   42.2    96    5.4   346     7.2   999.00    699.8    999.0    999000   999000   999.0    999000   999.0
 273   19:30   42.2    96    6.1   341     8.3   999.00    699.8    999.0    999000   999000   999.0    999000   999.0
 273   19:35   42.3    96    3.2   328     4.2   999.00    699.9    999.0    999000   999000   999.0    999000   999.0
 273   19:40   42.3    96    4.2   333     6.8   999.00    699.9    999.0    999000   999000   999.0    999000   999.0
 273   19:45   42.3    94    5.5   317     8.3   999.00    699.9    999.0    999000   999000   999.0    999000   999.0
 273   19:50   42.5    92    6.0   322     7.9   999.00    699.9    999.0    999000   999000   999.0    999000   999.0
 273   19:55   42.5    92    6.1   322     9.2   999.00    699.9    999.0    999000   999000   999.0    999000   999.0
 273   20:00   42.3    93    6.5   321    10.0   999.00    699.8    999.0    999000   999000   999.0    999000   999.0
 273   20:05   42.2    94    5.8   331     8.1   999.00    699.8    999.0    999000   999000   999.0    999000   999.0
 273   20:10   42.1    95    6.5   309    13.0   999.00    699.8    999.0    999000   999000   999.0    999000   999.0
 273   20:15   42.6    91    7.6   312    10.6   999.00    699.8    999.0    999000   999000   999.0    999000   999.0
 273   20:20   42.4    93    4.4   317     8.7   999.00    699.8    999.0    999000   999000   999.0    999000   999.0
 273   20:25   42.2    94    3.9   306     5.7   999.00    699.8    999.0    999000   999000   999.0    999000   999.0
 273   20:30   42.1    95    5.4   306     7.0   999.00    699.8    999.0    999000   999000   999.0    999000   999.0
 273   20:35   42.0    96    6.9   308     8.1   999.00    699.8    999.0    999000   999000   999.0    999000   999.0
 273   20:40   41.8    97    7.1   305     8.5   999.00    699.7    999.0    999000   999000   999.0    999000   999.0
 273   20:45   41.8    97    7.3   303     8.3   999.00    699.8    999.0    999000   999000   999.0    999000   999.0
 273   20:50   41.7    97    7.2   302     8.5   999.00    699.7    999.0    999000   999000   999.0    999000   999.0
 273   20:55   41.7    97    7.8   306    10.4   999.00    699.7    999.0    999000   999000   999.0    999000   999.0
 273   21:00   41.7    97    6.4   306     7.9   999.00    699.7    999.0    999000   999000   999.0    999000   999.0
 273   21:05   41.6    97    6.9   306    10.4   999.00    699.7    999.0    999000   999000   999.0    999000   999.0
 273   21:10   41.7    97    6.4   307     8.5   999.00    699.6    999.0    999000   999000   999.0    999000   999.0
 273   21:15   41.6    97    6.7   306     9.1   999.00    699.6    999.0    999000   999000   999.0    999000   999.0
 273   21:20   41.6    98    6.2   305     7.8   999.00    699.6    999.0    999000   999000   999.0    999000   999.0
 273   21:25   41.5    99    5.1   305     6.5   999.00    699.6    999.0    999000   999000   999.0    999000   999.0

Return to DRI Storm Peak Lab. graphs page.


Western Regional Climate Center,wrcc@dri.edu